sensor_id;sensor_type;location;lat;lon;timestamp;temperature;humidity
27745;DHT22;61387;48.112;8.616;2023-03-24T00:00:05;11.90;99.90
27745;DHT22;61387;48.112;8.616;2023-03-24T00:02:36;11.90;99.90
27745;DHT22;61387;48.112;8.616;2023-03-24T00:05:03;11.90;99.90
27745;DHT22;61387;48.112;8.616;2023-03-24T00:09:59;12.00;99.90
27745;DHT22;61387;48.112;8.616;2023-03-24T00:12:25;12.00;99.90
27745;DHT22;61387;48.112;8.616;2023-03-24T00:14:50;11.90;99.90
27745;DHT22;61387;48.112;8.616;2023-03-24T00:17:19;11.90;99.90
27745;DHT22;61387;48.112;8.616;2023-03-24T00:19:50;11.80;99.90
27745;DHT22;61387;48.112;8.616;2023-03-24T00:22:15;11.70;99.90
27745;DHT22;61387;48.112;8.616;2023-03-24T00:24:41;11.60;99.90
27745;DHT22;61387;48.112;8.616;2023-03-24T00:27:11;11.60;99.90
27745;DHT22;61387;48.112;8.616;2023-03-24T00:29:38;11.50;99.90
27745;DHT22;61387;48.112;8.616;2023-03-24T00:32:04;11.50;99.90
27745;DHT22;61387;48.112;8.616;2023-03-24T00:36:58;11.40;99.90
27745;DHT22;61387;48.112;8.616;2023-03-24T00:39:24;11.20;99.90
27745;DHT22;61387;48.112;8.616;2023-03-24T00:41:49;11.20;99.90
27745;DHT22;61387;48.112;8.616;2023-03-24T00:44:15;11.10;99.90
27745;DHT22;61387;48.112;8.616;2023-03-24T00:46:48;11.00;99.90
27745;DHT22;61387;48.112;8.616;2023-03-24T00:49:21;11.00;99.90
27745;DHT22;61387;48.112;8.616;2023-03-24T00:52:16;11.00;99.90
27745;DHT22;61387;48.112;8.616;2023-03-24T00:54:48;10.90;99.90
27745;DHT22;61387;48.112;8.616;2023-03-24T00:57:16;10.90;99.90
27745;DHT22;61387;48.112;8.616;2023-03-24T00:59:52;10.90;99.90
27745;DHT22;61387;48.112;8.616;2023-03-24T01:02:20;10.80;99.90
27745;DHT22;61387;48.112;8.616;2023-03-24T01:04:50;10.80;99.90
27745;DHT22;61387;48.112;8.616;2023-03-24T01:09:45;10.80;99.90
27745;DHT22;61387;48.112;8.616;2023-03-24T01:12:17;10.80;99.90
27745;DHT22;61387;48.112;8.616;2023-03-24T01:17:09;10.70;99.90
27745;DHT22;61387;48.112;8.616;2023-03-24T01:19:34;10.70;99.90
27745;DHT22;61387;48.112;8.616;2023-03-24T01:22:01;10.70;99.90
27745;DHT22;61387;48.112;8.616;2023-03-24T01:24:26;10.60;99.90
27745;DHT22;61387;48.112;8.616;2023-03-24T01:29:18;10.60;99.90
27745;DHT22;61387;48.112;8.616;2023-03-24T01:31:43;10.60;99.90
27745;DHT22;61387;48.112;8.616;2023-03-24T01:34:09;10.70;99.90
27745;DHT22;61387;48.112;8.616;2023-03-24T01:36:35;10.80;99.90
27745;DHT22;61387;48.112;8.616;2023-03-24T01:39:00;10.80;99.90
27745;DHT22;61387;48.112;8.616;2023-03-24T01:41:32;10.90;99.90
27745;DHT22;61387;48.112;8.616;2023-03-24T01:43:58;10.90;99.90
27745;DHT22;61387;48.112;8.616;2023-03-24T01:46:24;10.90;99.90
27745;DHT22;61387;48.112;8.616;2023-03-24T01:49:11;10.80;99.90
27745;DHT22;61387;48.112;8.616;2023-03-24T01:51:43;10.80;99.90
27745;DHT22;61387;48.112;8.616;2023-03-24T01:54:15;10.70;99.90
27745;DHT22;61387;48.112;8.616;2023-03-24T01:56:51;10.70;99.90
27745;DHT22;61387;48.112;8.616;2023-03-24T01:59:21;10.70;99.90
27745;DHT22;61387;48.112;8.616;2023-03-24T02:01:48;10.80;99.90
27745;DHT22;61387;48.112;8.616;2023-03-24T02:04:14;10.90;99.90
27745;DHT22;61387;48.112;8.616;2023-03-24T02:06:43;10.90;99.90
27745;DHT22;61387;48.112;8.616;2023-03-24T02:09:11;10.90;99.90
27745;DHT22;61387;48.112;8.616;2023-03-24T02:11:39;10.90;99.90
27745;DHT22;61387;48.112;8.616;2023-03-24T02:14:06;10.80;99.90
27745;DHT22;61387;48.112;8.616;2023-03-24T02:19:44;11.00;99.90
27745;DHT22;61387;48.112;8.616;2023-03-24T02:30:58;11.10;99.90
27745;DHT22;61387;48.112;8.616;2023-03-24T02:44:45;10.90;99.90
27745;DHT22;61387;48.112;8.616;2023-03-24T02:50:18;10.80;99.90
27745;DHT22;61387;48.112;8.616;2023-03-24T02:55:36;10.80;99.90
27745;DHT22;61387;48.112;8.616;2023-03-24T02:58:12;10.80;99.90
27745;DHT22;61387;48.112;8.616;2023-03-24T03:00:49;10.80;99.90
27745;DHT22;61387;48.112;8.616;2023-03-24T03:03:33;10.80;99.90
27745;DHT22;61387;48.112;8.616;2023-03-24T03:08:33;11.00;99.90
27745;DHT22;61387;48.112;8.616;2023-03-24T03:11:01;11.00;99.90
27745;DHT22;61387;48.112;8.616;2023-03-24T03:13:33;11.10;99.90
27745;DHT22;61387;48.112;8.616;2023-03-24T03:16:08;11.20;99.90
27745;DHT22;61387;48.112;8.616;2023-03-24T03:19:17;11.30;99.90
27745;DHT22;61387;48.112;8.616;2023-03-24T03:21:39;11.40;99.90
27745;DHT22;61387;48.112;8.616;2023-03-24T03:24:09;11.50;99.90
27745;DHT22;61387;48.112;8.616;2023-03-24T03:26:36;11.60;99.90
27745;DHT22;61387;48.112;8.616;2023-03-24T03:29:10;11.70;99.90
27745;DHT22;61387;48.112;8.616;2023-03-24T03:31:51;11.70;99.90
27745;DHT22;61387;48.112;8.616;2023-03-24T03:35:21;11.70;99.90
27745;DHT22;61387;48.112;8.616;2023-03-24T03:37:33;11.70;99.90
27745;DHT22;61387;48.112;8.616;2023-03-24T03:40:11;11.70;99.90
27745;DHT22;61387;48.112;8.616;2023-03-24T03:42:39;11.60;99.90
27745;DHT22;61387;48.112;8.616;2023-03-24T03:45:07;11.60;99.90
27745;DHT22;61387;48.112;8.616;2023-03-24T03:47:33;11.60;99.90
27745;DHT22;61387;48.112;8.616;2023-03-24T03:50:00;11.60;99.90
27745;DHT22;61387;48.112;8.616;2023-03-24T03:52:25;11.60;99.90
27745;DHT22;61387;48.112;8.616;2023-03-24T03:54:52;11.50;99.90
27745;DHT22;61387;48.112;8.616;2023-03-24T03:57:18;11.50;99.90
27745;DHT22;61387;48.112;8.616;2023-03-24T03:59:44;11.50;99.90
27745;DHT22;61387;48.112;8.616;2023-03-24T04:05:29;11.50;99.90
27745;DHT22;61387;48.112;8.616;2023-03-24T04:10:58;11.50;99.90
27745;DHT22;61387;48.112;8.616;2023-03-24T04:13:46;11.60;99.90
27745;DHT22;61387;48.112;8.616;2023-03-24T04:24:44;11.50;99.90
27745;DHT22;61387;48.112;8.616;2023-03-24T04:30:02;11.60;99.90
27745;DHT22;61387;48.112;8.616;2023-03-24T04:32:40;11.70;99.90
27745;DHT22;61387;48.112;8.616;2023-03-24T04:35:26;11.70;99.90
27745;DHT22;61387;48.112;8.616;2023-03-24T04:37:59;11.80;99.90
27745;DHT22;61387;48.112;8.616;2023-03-24T04:40:28;11.80;99.90
27745;DHT22;61387;48.112;8.616;2023-03-24T04:42:58;11.90;99.90
27745;DHT22;61387;48.112;8.616;2023-03-24T04:45:24;11.90;99.90
27745;DHT22;61387;48.112;8.616;2023-03-24T04:47:53;12.00;99.90
27745;DHT22;61387;48.112;8.616;2023-03-24T04:50:38;11.90;99.90
27745;DHT22;61387;48.112;8.616;2023-03-24T04:53:05;11.80;99.90
27745;DHT22;61387;48.112;8.616;2023-03-24T04:58:16;11.70;99.90
27745;DHT22;61387;48.112;8.616;2023-03-24T05:00:42;11.70;99.90
27745;DHT22;61387;48.112;8.616;2023-03-24T05:03:09;11.70;99.90
27745;DHT22;61387;48.112;8.616;2023-03-24T05:05:38;11.70;99.90
27745;DHT22;61387;48.112;8.616;2023-03-24T05:08:05;11.60;99.90
27745;DHT22;61387;48.112;8.616;2023-03-24T05:10:30;11.60;99.90
27745;DHT22;61387;48.112;8.616;2023-03-24T05:12:56;11.50;99.90
27745;DHT22;61387;48.112;8.616;2023-03-24T05:15:21;11.40;99.90
27745;DHT22;61387;48.112;8.616;2023-03-24T05:17:47;11.20;99.90
27745;DHT22;61387;48.112;8.616;2023-03-24T05:20:12;11.10;99.90
27745;DHT22;61387;48.112;8.616;2023-03-24T05:22:39;11.10;99.90
27745;DHT22;61387;48.112;8.616;2023-03-24T05:25:05;11.00;99.90
27745;DHT22;61387;48.112;8.616;2023-03-24T05:27:31;10.90;99.90
27745;DHT22;61387;48.112;8.616;2023-03-24T05:29:58;10.90;99.90
27745;DHT22;61387;48.112;8.616;2023-03-24T05:34:49;10.80;99.90
27745;DHT22;61387;48.112;8.616;2023-03-24T05:37:15;10.80;99.90
27745;DHT22;61387;48.112;8.616;2023-03-24T05:39:42;10.70;99.90
27745;DHT22;61387;48.112;8.616;2023-03-24T05:42:08;10.70;99.90
27745;DHT22;61387;48.112;8.616;2023-03-24T05:44:34;10.70;99.90
27745;DHT22;61387;48.112;8.616;2023-03-24T05:47:00;10.60;99.90
27745;DHT22;61387;48.112;8.616;2023-03-24T05:51:51;10.60;99.90
27745;DHT22;61387;48.112;8.616;2023-03-24T05:54:17;10.60;99.90
27745;DHT22;61387;48.112;8.616;2023-03-24T05:59:09;10.60;99.90
27745;DHT22;61387;48.112;8.616;2023-03-24T06:01:36;10.60;99.90
27745;DHT22;61387;48.112;8.616;2023-03-24T06:04:01;10.50;99.90
27745;DHT22;61387;48.112;8.616;2023-03-24T06:06:27;10.50;99.90
27745;DHT22;61387;48.112;8.616;2023-03-24T06:08:53;10.50;99.90
27745;DHT22;61387;48.112;8.616;2023-03-24T06:16:14;10.50;99.90
27745;DHT22;61387;48.112;8.616;2023-03-24T06:18:43;10.60;99.90
27745;DHT22;61387;48.112;8.616;2023-03-24T06:21:16;10.60;99.90
27745;DHT22;61387;48.112;8.616;2023-03-24T06:23:43;10.60;99.90
27745;DHT22;61387;48.112;8.616;2023-03-24T06:26:10;10.70;99.90
27745;DHT22;61387;48.112;8.616;2023-03-24T06:28:36;10.90;99.90
27745;DHT22;61387;48.112;8.616;2023-03-24T06:33:30;11.00;99.90
27745;DHT22;61387;48.112;8.616;2023-03-24T06:35:55;11.00;99.90
27745;DHT22;61387;48.112;8.616;2023-03-24T06:40:47;11.10;99.90
27745;DHT22;61387;48.112;8.616;2023-03-24T06:43:12;11.10;99.90
27745;DHT22;61387;48.112;8.616;2023-03-24T06:45:38;11.10;99.90
27745;DHT22;61387;48.112;8.616;2023-03-24T06:48:04;11.10;99.90
27745;DHT22;61387;48.112;8.616;2023-03-24T06:50:30;11.10;99.90
27745;DHT22;61387;48.112;8.616;2023-03-24T06:53:00;11.00;99.90
27745;DHT22;61387;48.112;8.616;2023-03-24T06:55:26;11.10;99.90
27745;DHT22;61387;48.112;8.616;2023-03-24T07:00:18;11.00;99.90
27745;DHT22;61387;48.112;8.616;2023-03-24T07:02:44;11.00;99.90
27745;DHT22;61387;48.112;8.616;2023-03-24T07:05:10;11.00;99.90
27745;DHT22;61387;48.112;8.616;2023-03-24T07:07:37;11.00;99.90
27745;DHT22;61387;48.112;8.616;2023-03-24T07:10:04;11.00;99.90
27745;DHT22;61387;48.112;8.616;2023-03-24T07:12:30;11.00;99.90
27745;DHT22;61387;48.112;8.616;2023-03-24T07:17:22;11.00;99.90
27745;DHT22;61387;48.112;8.616;2023-03-24T07:19:48;11.00;99.90
27745;DHT22;61387;48.112;8.616;2023-03-24T07:22:14;11.10;99.90
27745;DHT22;61387;48.112;8.616;2023-03-24T07:24:39;11.10;99.90
27745;DHT22;61387;48.112;8.616;2023-03-24T07:27:05;11.10;99.90
27745;DHT22;61387;48.112;8.616;2023-03-24T07:31:57;11.10;99.90
27745;DHT22;61387;48.112;8.616;2023-03-24T07:34:23;11.20;99.90
27745;DHT22;61387;48.112;8.616;2023-03-24T07:36:50;11.20;99.90
27745;DHT22;61387;48.112;8.616;2023-03-24T07:39:16;11.20;99.90
27745;DHT22;61387;48.112;8.616;2023-03-24T07:41:42;11.20;99.90
27745;DHT22;61387;48.112;8.616;2023-03-24T07:44:08;11.20;99.90
27745;DHT22;61387;48.112;8.616;2023-03-24T07:46:34;11.20;99.90
27745;DHT22;61387;48.112;8.616;2023-03-24T07:48:59;11.20;99.90
27745;DHT22;61387;48.112;8.616;2023-03-24T07:53:52;11.10;99.90
27745;DHT22;61387;48.112;8.616;2023-03-24T07:58:44;11.20;99.90
27745;DHT22;61387;48.112;8.616;2023-03-24T08:01:09;11.20;99.90
27745;DHT22;61387;48.112;8.616;2023-03-24T08:03:36;11.20;99.90
27745;DHT22;61387;48.112;8.616;2023-03-24T08:06:03;11.20;99.90
27745;DHT22;61387;48.112;8.616;2023-03-24T08:08:29;11.20;99.90
27745;DHT22;61387;48.112;8.616;2023-03-24T08:13:21;11.20;99.90
27745;DHT22;61387;48.112;8.616;2023-03-24T08:15:47;11.20;99.90
27745;DHT22;61387;48.112;8.616;2023-03-24T08:18:13;11.20;99.90
27745;DHT22;61387;48.112;8.616;2023-03-24T08:20:40;11.20;99.90
27745;DHT22;61387;48.112;8.616;2023-03-24T08:25:33;11.20;99.90
27745;DHT22;61387;48.112;8.616;2023-03-24T08:30:26;11.30;99.90
27745;DHT22;61387;48.112;8.616;2023-03-24T08:33:00;11.30;99.90
27745;DHT22;61387;48.112;8.616;2023-03-24T08:35:33;11.30;99.90
27745;DHT22;61387;48.112;8.616;2023-03-24T08:40:29;11.30;99.90
27745;DHT22;61387;48.112;8.616;2023-03-24T08:42:58;11.30;99.90
27745;DHT22;61387;48.112;8.616;2023-03-24T08:45:26;11.30;99.90
27745;DHT22;61387;48.112;8.616;2023-03-24T08:47:53;11.30;99.90
27745;DHT22;61387;48.112;8.616;2023-03-24T08:50:22;11.30;99.90
27745;DHT22;61387;48.112;8.616;2023-03-24T08:52:48;11.20;99.90
27745;DHT22;61387;48.112;8.616;2023-03-24T08:55:15;11.20;99.90
27745;DHT22;61387;48.112;8.616;2023-03-24T08:57:42;11.20;99.90
27745;DHT22;61387;48.112;8.616;2023-03-24T09:00:08;11.20;99.90
27745;DHT22;61387;48.112;8.616;2023-03-24T09:02:44;11.10;99.90
27745;DHT22;61387;48.112;8.616;2023-03-24T09:05:12;11.20;99.90
27745;DHT22;61387;48.112;8.616;2023-03-24T09:07:39;11.30;99.90
27745;DHT22;61387;48.112;8.616;2023-03-24T09:10:06;11.40;99.90
27745;DHT22;61387;48.112;8.616;2023-03-24T09:12:33;11.50;99.90
27745;DHT22;61387;48.112;8.616;2023-03-24T09:14:59;11.60;99.90
27745;DHT22;61387;48.112;8.616;2023-03-24T09:17:24;11.70;99.90
27745;DHT22;61387;48.112;8.616;2023-03-24T09:19:50;12.00;99.90
27745;DHT22;61387;48.112;8.616;2023-03-24T09:22:15;12.10;99.90
27745;DHT22;61387;48.112;8.616;2023-03-24T09:24:41;12.30;99.90
27745;DHT22;61387;48.112;8.616;2023-03-24T09:27:09;12.50;99.90
27745;DHT22;61387;48.112;8.616;2023-03-24T09:32:00;12.70;99.90
27745;DHT22;61387;48.112;8.616;2023-03-24T09:36:52;12.70;99.90
27745;DHT22;61387;48.112;8.616;2023-03-24T09:41:44;13.00;99.90
27745;DHT22;61387;48.112;8.616;2023-03-24T09:44:48;13.00;99.90
27745;DHT22;61387;48.112;8.616;2023-03-24T09:47:33;13.00;99.90
27745;DHT22;61387;48.112;8.616;2023-03-24T09:50:06;13.00;99.90
27745;DHT22;61387;48.112;8.616;2023-03-24T09:52:35;13.20;99.90
27745;DHT22;61387;48.112;8.616;2023-03-24T09:55:03;13.20;99.90
27745;DHT22;61387;48.112;8.616;2023-03-24T09:57:40;13.20;99.90
27745;DHT22;61387;48.112;8.616;2023-03-24T10:00:23;13.10;99.90
27745;DHT22;61387;48.112;8.616;2023-03-24T10:02:50;13.00;99.90
27745;DHT22;61387;48.112;8.616;2023-03-24T10:05:24;13.10;99.90
27745;DHT22;61387;48.112;8.616;2023-03-24T10:10:38;13.20;99.90
27745;DHT22;61387;48.112;8.616;2023-03-24T10:13:06;13.30;99.90
27745;DHT22;61387;48.112;8.616;2023-03-24T10:18:51;13.00;99.90
27745;DHT22;61387;48.112;8.616;2023-03-24T10:21:25;13.00;99.90
27745;DHT22;61387;48.112;8.616;2023-03-24T10:26:48;12.90;99.90
27745;DHT22;61387;48.112;8.616;2023-03-24T10:29:29;13.00;99.90
27745;DHT22;61387;48.112;8.616;2023-03-24T10:32:15;12.90;99.90
27745;DHT22;61387;48.112;8.616;2023-03-24T10:34:56;12.90;99.90
27745;DHT22;61387;48.112;8.616;2023-03-24T10:37:23;12.90;99.90
27745;DHT22;61387;48.112;8.616;2023-03-24T10:39:49;12.70;99.90
27745;DHT22;61387;48.112;8.616;2023-03-24T10:42:18;12.60;99.90
27745;DHT22;61387;48.112;8.616;2023-03-24T10:44:47;12.50;99.90
27745;DHT22;61387;48.112;8.616;2023-03-24T10:47:15;12.40;99.90
27745;DHT22;61387;48.112;8.616;2023-03-24T10:49:54;12.30;99.90
27745;DHT22;61387;48.112;8.616;2023-03-24T10:52:21;12.20;99.90
27745;DHT22;61387;48.112;8.616;2023-03-24T10:54:57;12.10;99.90
27745;DHT22;61387;48.112;8.616;2023-03-24T10:57:24;11.90;99.90
27745;DHT22;61387;48.112;8.616;2023-03-24T11:00:05;12.40;99.90
27745;DHT22;61387;48.112;8.616;2023-03-24T11:02:41;11.60;99.90
27745;DHT22;61387;48.112;8.616;2023-03-24T11:05:14;11.50;99.90
27745;DHT22;61387;48.112;8.616;2023-03-24T11:07:44;11.60;99.90
27745;DHT22;61387;48.112;8.616;2023-03-24T11:13:01;12.10;99.90
27745;DHT22;61387;48.112;8.616;2023-03-24T11:15:30;12.20;99.90
27745;DHT22;61387;48.112;8.616;2023-03-24T11:21:04;12.70;99.90
27745;DHT22;61387;48.112;8.616;2023-03-24T11:23:32;13.00;99.90
27745;DHT22;61387;48.112;8.616;2023-03-24T11:26:13;13.10;99.90
27745;DHT22;61387;48.112;8.616;2023-03-24T11:28:50;13.00;99.90
27745;DHT22;61387;48.112;8.616;2023-03-24T11:31:31;13.00;99.90
27745;DHT22;61387;48.112;8.616;2023-03-24T11:34:00;12.90;99.90
27745;DHT22;61387;48.112;8.616;2023-03-24T11:39:09;12.60;99.90
27745;DHT22;61387;48.112;8.616;2023-03-24T11:41:37;12.60;99.90
27745;DHT22;61387;48.112;8.616;2023-03-24T11:44:22;12.60;99.90
27745;DHT22;61387;48.112;8.616;2023-03-24T11:46:55;12.60;99.90
27745;DHT22;61387;48.112;8.616;2023-03-24T11:49:30;12.80;99.90
27745;DHT22;61387;48.112;8.616;2023-03-24T11:51:57;12.80;99.90
27745;DHT22;61387;48.112;8.616;2023-03-24T11:54:30;12.80;99.90
27745;DHT22;61387;48.112;8.616;2023-03-24T11:57:00;12.60;99.90
27745;DHT22;61387;48.112;8.616;2023-03-24T11:59:47;12.50;99.90
27745;DHT22;61387;48.112;8.616;2023-03-24T12:02:23;12.40;99.90
27745;DHT22;61387;48.112;8.616;2023-03-24T12:05:02;12.50;99.90
27745;DHT22;61387;48.112;8.616;2023-03-24T12:10:37;12.60;99.90
27745;DHT22;61387;48.112;8.616;2023-03-24T12:13:32;12.50;99.90
27745;DHT22;61387;48.112;8.616;2023-03-24T12:16:10;12.60;99.90
27745;DHT22;61387;48.112;8.616;2023-03-24T12:23:53;12.60;99.90
27745;DHT22;61387;48.112;8.616;2023-03-24T12:26:31;12.60;99.90
27745;DHT22;61387;48.112;8.616;2023-03-24T12:35:18;12.90;99.90
27745;DHT22;61387;48.112;8.616;2023-03-24T12:37:58;12.90;99.90
27745;DHT22;61387;48.112;8.616;2023-03-24T12:45:54;12.60;99.90
27745;DHT22;61387;48.112;8.616;2023-03-24T12:51:29;12.50;99.90
27745;DHT22;61387;48.112;8.616;2023-03-24T12:56:41;12.30;99.90
27745;DHT22;61387;48.112;8.616;2023-03-24T12:59:13;12.20;99.90
27745;DHT22;61387;48.112;8.616;2023-03-24T13:01:43;12.30;99.90
27745;DHT22;61387;48.112;8.616;2023-03-24T13:04:22;12.20;99.90
27745;DHT22;61387;48.112;8.616;2023-03-24T13:06:51;12.20;99.90
27745;DHT22;61387;48.112;8.616;2023-03-24T13:09:42;12.10;99.90
27745;DHT22;61387;48.112;8.616;2023-03-24T13:12:29;12.20;99.90
27745;DHT22;61387;48.112;8.616;2023-03-24T13:20:15;12.50;99.90
27745;DHT22;61387;48.112;8.616;2023-03-24T13:22:43;12.40;99.90
27745;DHT22;61387;48.112;8.616;2023-03-24T13:25:33;12.20;99.90
27745;DHT22;61387;48.112;8.616;2023-03-24T13:30:37;12.10;99.90
27745;DHT22;61387;48.112;8.616;2023-03-24T13:33:14;12.00;99.90
27745;DHT22;61387;48.112;8.616;2023-03-24T13:35:48;11.90;99.90
27745;DHT22;61387;48.112;8.616;2023-03-24T13:38:22;11.60;99.90
27745;DHT22;61387;48.112;8.616;2023-03-24T13:40:52;11.70;99.90
27745;DHT22;61387;48.112;8.616;2023-03-24T13:43:23;11.70;99.90
27745;DHT22;61387;48.112;8.616;2023-03-24T13:45:58;11.70;99.90
27745;DHT22;61387;48.112;8.616;2023-03-24T13:51:06;11.40;99.90
27745;DHT22;61387;48.112;8.616;2023-03-24T13:54:02;11.30;99.90
27745;DHT22;61387;48.112;8.616;2023-03-24T13:56:38;11.30;99.90
27745;DHT22;61387;48.112;8.616;2023-03-24T13:59:23;11.30;99.90
27745;DHT22;61387;48.112;8.616;2023-03-24T14:18:17;11.40;99.90
27745;DHT22;61387;48.112;8.616;2023-03-24T14:21:01;11.40;99.90
27745;DHT22;61387;48.112;8.616;2023-03-24T14:23:48;11.20;99.90
27745;DHT22;61387;48.112;8.616;2023-03-24T14:28:48;11.10;99.90
27745;DHT22;61387;48.112;8.616;2023-03-24T14:36:24;11.00;99.90
27745;DHT22;61387;48.112;8.616;2023-03-24T14:38:51;10.90;99.90
27745;DHT22;61387;48.112;8.616;2023-03-24T14:41:27;10.90;99.90
27745;DHT22;61387;48.112;8.616;2023-03-24T14:43:58;10.70;99.90
27745;DHT22;61387;48.112;8.616;2023-03-24T14:46:45;10.70;99.90
27745;DHT22;61387;48.112;8.616;2023-03-24T14:49:28;10.60;99.90
27745;DHT22;61387;48.112;8.616;2023-03-24T14:54:44;10.50;99.90
27745;DHT22;61387;48.112;8.616;2023-03-24T14:57:38;10.50;99.90
27745;DHT22;61387;48.112;8.616;2023-03-24T15:00:19;10.60;99.90
27745;DHT22;61387;48.112;8.616;2023-03-24T15:02:55;10.70;99.90
27745;DHT22;61387;48.112;8.616;2023-03-24T15:08:20;10.50;99.90
27745;DHT22;61387;48.112;8.616;2023-03-24T15:11:01;10.50;99.90
27745;DHT22;61387;48.112;8.616;2023-03-24T15:13:42;10.50;99.90
27745;DHT22;61387;48.112;8.616;2023-03-24T15:18:46;10.70;99.90
27745;DHT22;61387;48.112;8.616;2023-03-24T15:21:15;10.70;99.90
27745;DHT22;61387;48.112;8.616;2023-03-24T15:23:45;10.70;99.90
27745;DHT22;61387;48.112;8.616;2023-03-24T15:26:12;10.80;99.90
27745;DHT22;61387;48.112;8.616;2023-03-24T15:28:38;10.80;99.90
27745;DHT22;61387;48.112;8.616;2023-03-24T15:31:04;10.80;99.90
27745;DHT22;61387;48.112;8.616;2023-03-24T15:33:41;10.70;99.90
27745;DHT22;61387;48.112;8.616;2023-03-24T15:36:20;10.70;99.90
27745;DHT22;61387;48.112;8.616;2023-03-24T15:38:49;10.80;99.90
27745;DHT22;61387;48.112;8.616;2023-03-24T15:41:17;10.80;99.90
27745;DHT22;61387;48.112;8.616;2023-03-24T15:43:46;10.90;99.90
27745;DHT22;61387;48.112;8.616;2023-03-24T15:46:24;10.90;99.90
27745;DHT22;61387;48.112;8.616;2023-03-24T15:51:17;11.00;99.90
27745;DHT22;61387;48.112;8.616;2023-03-24T15:53:56;11.10;99.90
27745;DHT22;61387;48.112;8.616;2023-03-24T15:56:29;11.10;99.90
27745;DHT22;61387;48.112;8.616;2023-03-24T16:01:36;11.30;99.90
27745;DHT22;61387;48.112;8.616;2023-03-24T16:04:14;11.20;99.90
27745;DHT22;61387;48.112;8.616;2023-03-24T16:06:44;11.20;99.90
27745;DHT22;61387;48.112;8.616;2023-03-24T16:09:14;11.30;99.90
27745;DHT22;61387;48.112;8.616;2023-03-24T16:11:41;11.30;99.90
27745;DHT22;61387;48.112;8.616;2023-03-24T16:14:27;11.20;99.90
27745;DHT22;61387;48.112;8.616;2023-03-24T16:16:59;11.00;99.90
27745;DHT22;61387;48.112;8.616;2023-03-24T16:19:25;10.90;99.90
27745;DHT22;61387;48.112;8.616;2023-03-24T16:21:51;10.90;99.90
27745;DHT22;61387;48.112;8.616;2023-03-24T16:24:16;10.80;99.90
27745;DHT22;61387;48.112;8.616;2023-03-24T16:26:42;10.80;99.90
27745;DHT22;61387;48.112;8.616;2023-03-24T16:29:19;10.70;99.90
27745;DHT22;61387;48.112;8.616;2023-03-24T16:31:47;10.70;99.90
27745;DHT22;61387;48.112;8.616;2023-03-24T16:34:14;10.60;99.90
27745;DHT22;61387;48.112;8.616;2023-03-24T16:36:40;10.60;99.90
27745;DHT22;61387;48.112;8.616;2023-03-24T16:39:13;10.60;99.90
27745;DHT22;61387;48.112;8.616;2023-03-24T16:46:33;10.60;99.90
27745;DHT22;61387;48.112;8.616;2023-03-24T16:49:00;10.50;99.90
27745;DHT22;61387;48.112;8.616;2023-03-24T16:51:26;10.40;99.90
27745;DHT22;61387;48.112;8.616;2023-03-24T16:53:51;10.40;99.90
27745;DHT22;61387;48.112;8.616;2023-03-24T16:56:19;10.30;99.90
27745;DHT22;61387;48.112;8.616;2023-03-24T17:04:03;10.10;99.90
27745;DHT22;61387;48.112;8.616;2023-03-24T17:06:31;10.10;99.90
27745;DHT22;61387;48.112;8.616;2023-03-24T17:08:57;10.10;99.90
27745;DHT22;61387;48.112;8.616;2023-03-24T17:11:32;10.00;99.90
27745;DHT22;61387;48.112;8.616;2023-03-24T17:13:58;10.00;99.90
27745;DHT22;61387;48.112;8.616;2023-03-24T17:18:55;9.90;99.90
27745;DHT22;61387;48.112;8.616;2023-03-24T17:21:21;9.90;99.90
27745;DHT22;61387;48.112;8.616;2023-03-24T17:23:47;9.90;99.90
27745;DHT22;61387;48.112;8.616;2023-03-24T17:26:14;9.80;99.90
27745;DHT22;61387;48.112;8.616;2023-03-24T17:28:40;9.80;99.90
27745;DHT22;61387;48.112;8.616;2023-03-24T17:31:06;9.70;99.90
27745;DHT22;61387;48.112;8.616;2023-03-24T17:35:58;9.60;99.90
27745;DHT22;61387;48.112;8.616;2023-03-24T17:38:23;9.50;99.90
27745;DHT22;61387;48.112;8.616;2023-03-24T17:40:58;9.50;99.90
27745;DHT22;61387;48.112;8.616;2023-03-24T17:43:23;9.50;99.90
27745;DHT22;61387;48.112;8.616;2023-03-24T17:45:49;9.40;99.90
27745;DHT22;61387;48.112;8.616;2023-03-24T17:48:14;9.40;99.90
27745;DHT22;61387;48.112;8.616;2023-03-24T17:50:40;9.40;99.90
27745;DHT22;61387;48.112;8.616;2023-03-24T17:55:32;9.30;99.90
27745;DHT22;61387;48.112;8.616;2023-03-24T17:57:57;9.20;99.90
27745;DHT22;61387;48.112;8.616;2023-03-24T18:00:23;9.20;99.90
27745;DHT22;61387;48.112;8.616;2023-03-24T18:02:48;9.10;99.90
27745;DHT22;61387;48.112;8.616;2023-03-24T18:05:14;9.10;99.90
27745;DHT22;61387;48.112;8.616;2023-03-24T18:07:40;9.00;99.90
27745;DHT22;61387;48.112;8.616;2023-03-24T18:10:06;9.00;99.90
27745;DHT22;61387;48.112;8.616;2023-03-24T18:12:32;8.90;99.90
27745;DHT22;61387;48.112;8.616;2023-03-24T18:17:24;8.90;99.90
27745;DHT22;61387;48.112;8.616;2023-03-24T18:19:49;8.80;99.90
27745;DHT22;61387;48.112;8.616;2023-03-24T18:29:35;8.70;99.90
27745;DHT22;61387;48.112;8.616;2023-03-24T18:34:27;8.70;99.90
27745;DHT22;61387;48.112;8.616;2023-03-24T18:36:55;8.70;99.90
27745;DHT22;61387;48.112;8.616;2023-03-24T18:41:47;8.60;99.90
27745;DHT22;61387;48.112;8.616;2023-03-24T18:46:40;8.50;99.90
27745;DHT22;61387;48.112;8.616;2023-03-24T18:49:06;8.40;99.90
27745;DHT22;61387;48.112;8.616;2023-03-24T18:51:32;8.40;99.90
27745;DHT22;61387;48.112;8.616;2023-03-24T18:53:59;8.40;99.90
27745;DHT22;61387;48.112;8.616;2023-03-24T18:56:25;8.40;99.90
27745;DHT22;61387;48.112;8.616;2023-03-24T18:58:51;8.30;99.90
27745;DHT22;61387;48.112;8.616;2023-03-24T19:01:17;8.20;99.90
27745;DHT22;61387;48.112;8.616;2023-03-24T19:03:50;8.20;99.90
27745;DHT22;61387;48.112;8.616;2023-03-24T19:06:16;8.20;99.90
27745;DHT22;61387;48.112;8.616;2023-03-24T19:08:49;8.20;99.90
27745;DHT22;61387;48.112;8.616;2023-03-24T19:11:16;8.20;99.90
27745;DHT22;61387;48.112;8.616;2023-03-24T19:13:42;8.10;99.90
27745;DHT22;61387;48.112;8.616;2023-03-24T19:16:14;8.10;99.90
27745;DHT22;61387;48.112;8.616;2023-03-24T19:18:39;8.10;99.90
27745;DHT22;61387;48.112;8.616;2023-03-24T19:21:05;8.10;99.90
27745;DHT22;61387;48.112;8.616;2023-03-24T19:25:57;7.90;99.90
27745;DHT22;61387;48.112;8.616;2023-03-24T19:28:25;7.70;99.90
27745;DHT22;61387;48.112;8.616;2023-03-24T19:30:54;7.70;99.90
27745;DHT22;61387;48.112;8.616;2023-03-24T19:33:20;7.60;99.90
27745;DHT22;61387;48.112;8.616;2023-03-24T19:35:47;7.50;99.90
27745;DHT22;61387;48.112;8.616;2023-03-24T19:38:14;7.40;99.90
27745;DHT22;61387;48.112;8.616;2023-03-24T19:40:40;7.40;99.90
27745;DHT22;61387;48.112;8.616;2023-03-24T19:43:06;7.40;99.90
27745;DHT22;61387;48.112;8.616;2023-03-24T19:45:32;7.30;99.90
27745;DHT22;61387;48.112;8.616;2023-03-24T19:47:57;7.30;99.90